createdAt,value
2023-03-12T00:02:23.324Z,76912.19
2023-03-12T00:04:51.154Z,76914.22
2023-03-12T00:07:18.877Z,76893.81
2023-03-12T00:09:46.825Z,76897.91
2023-03-12T00:12:14.617Z,76897.91
2023-03-12T00:14:43.718Z,76891.78
2023-03-12T00:17:11.513Z,76889.75
2023-03-12T00:19:39.315Z,76889.75
2023-03-12T00:22:07.067Z,76899.94
2023-03-12T00:24:34.791Z,76897.91
2023-03-12T00:27:02.598Z,76914.22
2023-03-12T00:29:30.341Z,76926.47
2023-03-12T00:31:59.415Z,76940.72
2023-03-12T00:34:27.186Z,76952.97
2023-03-12T00:36:54.901Z,76961.13
2023-03-12T00:39:22.634Z,76963.16
2023-03-12T00:41:50.432Z,76975.41
2023-03-12T00:44:18.182Z,76981.53
2023-03-12T00:46:45.989Z,76979.47
2023-03-12T00:49:15.285Z,76979.47
2023-03-12T00:51:43.044Z,76983.56
2023-03-12T00:54:10.795Z,76979.47
2023-03-12T00:56:38.618Z,76979.47
2023-03-12T00:59:06.357Z,76987.63
2023-03-12T01:01:34.143Z,76991.72
2023-03-12T01:04:02.052Z,77008.03
2023-03-12T01:06:31.388Z,77022.31
2023-03-12T01:08:59.499Z,77030.47
2023-03-12T01:11:28.248Z,77034.53
2023-03-12T01:13:55.972Z,77040.66
2023-03-12T01:16:28.204Z,77052.91
2023-03-12T01:18:56.317Z,77044.75
2023-03-12T01:21:24.139Z,77036.59
2023-03-12T01:23:55.371Z,77044.75
2023-03-12T01:26:24.126Z,77042.69
2023-03-12T01:28:52.130Z,77034.53
2023-03-12T01:31:20.638Z,77030.47
2023-03-12T01:33:51.374Z,77032.50
2023-03-12T01:36:21.742Z,77022.31
2023-03-12T01:38:51.765Z,77024.34
2023-03-12T01:41:21.664Z,77020.25
2023-03-12T01:43:49.476Z,77016.19
2023-03-12T01:46:28.045Z,77016.19
2023-03-12T01:49:00.376Z,77016.19
2023-03-12T01:51:31.531Z,77014.16
2023-03-12T01:54:03.356Z,77018.22
2023-03-12T01:56:35.449Z,77016.19
2023-03-12T01:59:11.462Z,77012.09
2023-03-12T02:01:40.749Z,77010.06
2023-03-12T02:04:08.732Z,77008.03
2023-03-12T02:06:43.807Z,76999.88
2023-03-12T02:09:13.180Z,77010.06
2023-03-12T02:11:42.424Z,77003.94
2023-03-12T02:14:10.191Z,76999.88
2023-03-12T02:16:38.085Z,77001.91
2023-03-12T02:19:14.177Z,77001.91
2023-03-12T02:21:42.137Z,76993.75
2023-03-12T02:24:20.179Z,76997.84
2023-03-12T02:26:49.781Z,76995.78
2023-03-12T02:29:18.298Z,76989.69
2023-03-12T02:31:51.793Z,76995.78
2023-03-12T02:34:19.640Z,76995.78
2023-03-12T02:36:48.692Z,76991.72
2023-03-12T02:39:16.505Z,76995.78
2023-03-12T02:41:47.028Z,76993.75
2023-03-12T02:44:19.305Z,77016.19
2023-03-12T02:46:50.023Z,77018.22
2023-03-12T02:49:19.399Z,77016.19
2023-03-12T02:51:48.341Z,77022.31
2023-03-12T02:54:18.694Z,77024.34
2023-03-12T02:56:46.662Z,77034.53
2023-03-12T02:59:17.898Z,77046.78
2023-03-12T03:01:45.804Z,77056.97
2023-03-12T03:04:14.358Z,77061.06
2023-03-12T03:06:45.300Z,77075.31
2023-03-12T03:09:13.043Z,77077.38
2023-03-12T03:11:41.398Z,77079.41
2023-03-12T03:14:10.154Z,77083.50
2023-03-12T03:16:39.289Z,77089.59
2023-03-12T03:19:07.148Z,77085.53
2023-03-12T03:21:35.501Z,77093.69
2023-03-12T03:24:03.339Z,77093.69
2023-03-12T03:26:31.294Z,77091.66
2023-03-12T03:28:59.142Z,77099.81
2023-03-12T03:31:27.229Z,77101.84
2023-03-12T03:33:56.371Z,77110.00
2023-03-12T03:36:24.292Z,77110.00
2023-03-12T03:38:52.048Z,77114.06
2023-03-12T03:41:21.515Z,77126.31
2023-03-12T03:43:49.496Z,77138.56
2023-03-12T03:46:17.505Z,77146.72
2023-03-12T03:48:45.324Z,77150.78
2023-03-12T03:51:14.468Z,77140.59
2023-03-12T03:53:42.278Z,77140.59
2023-03-12T03:56:12.135Z,77148.75
2023-03-12T03:58:40.037Z,77156.91
2023-03-12T04:01:08.074Z,77156.91
2023-03-12T04:03:36.495Z,77158.94
2023-03-12T04:06:06.640Z,77167.09
2023-03-12T04:08:37.223Z,77175.25
2023-03-12T04:11:09.651Z,77183.41
2023-03-12T04:13:37.668Z,77191.56
2023-03-12T04:16:05.945Z,77197.69
2023-03-12T04:18:33.778Z,77203.81
2023-03-12T04:21:01.600Z,77211.97
2023-03-12T04:23:29.447Z,77220.13
2023-03-12T04:25:58.611Z,77222.16
2023-03-12T04:28:26.468Z,77230.31
2023-03-12T04:30:59.550Z,77234.41
2023-03-12T04:33:27.488Z,77240.53
2023-03-12T04:35:55.928Z,77254.78
2023-03-12T04:38:25.005Z,77260.91
2023-03-12T04:41:00.481Z,77273.16
2023-03-12T04:43:29.426Z,77269.06
2023-03-12T04:45:57.810Z,77281.31
2023-03-12T04:48:26.426Z,77285.38
2023-03-12T04:50:54.430Z,77277.22
2023-03-12T04:53:23.150Z,77283.34
2023-03-12T04:55:51.616Z,77285.38
2023-03-12T04:58:21.349Z,77289.47
2023-03-12T05:00:49.936Z,77293.53
2023-03-12T05:03:18.333Z,77303.75
2023-03-12T05:05:46.418Z,77309.88
2023-03-12T05:08:14.170Z,77315.97
2023-03-12T05:10:45.160Z,77318.03
2023-03-12T05:13:17.009Z,77318.03
2023-03-12T05:15:47.556Z,77315.97
2023-03-12T05:18:15.763Z,77322.09
2023-03-12T05:20:43.995Z,77322.09
2023-03-12T05:23:11.990Z,77313.94
2023-03-12T05:25:40.674Z,77318.03
2023-03-12T05:28:08.488Z,77324.13
2023-03-12T05:30:36.258Z,77326.19
2023-03-12T05:33:05.435Z,77326.19
2023-03-12T05:35:33.306Z,77330.25
2023-03-12T05:38:01.166Z,77330.25
2023-03-12T05:40:29.130Z,77332.31
2023-03-12T05:42:56.898Z,77322.09
2023-03-12T05:45:24.676Z,77330.25
2023-03-12T05:47:52.467Z,77326.19
2023-03-12T05:50:21.565Z,77324.13
2023-03-12T05:52:49.316Z,77320.06
2023-03-12T05:55:17.309Z,77324.13
2023-03-12T05:57:45.679Z,77318.03
2023-03-12T06:00:15.408Z,77305.78
2023-03-12T06:02:43.757Z,77297.63
2023-03-12T06:05:11.638Z,77285.38
2023-03-12T06:07:40.804Z,77279.28
2023-03-12T06:10:09.768Z,77271.13
2023-03-12T06:12:37.563Z,77260.91
2023-03-12T06:15:06.100Z,77248.69
2023-03-12T06:17:33.919Z,77228.28
2023-03-12T06:20:01.655Z,77216.03
2023-03-12T06:22:30.045Z,77203.81
2023-03-12T06:24:59.547Z,77187.50
2023-03-12T06:27:27.455Z,77183.41
2023-03-12T06:29:55.237Z,77167.09
2023-03-12T06:32:23.194Z,77150.78
2023-03-12T06:34:51.187Z,77132.44
2023-03-12T06:37:18.956Z,77114.06
2023-03-12T06:39:46.777Z,77101.84
2023-03-12T06:42:17.712Z,77077.38
2023-03-12T06:44:45.451Z,77052.91
2023-03-12T06:47:13.629Z,77032.50
2023-03-12T06:49:42.105Z,77020.25
2023-03-12T06:52:09.922Z,77001.91
2023-03-12T06:54:37.732Z,76991.72
2023-03-12T06:57:05.565Z,76983.56
2023-03-12T06:59:34.789Z,76967.25
2023-03-12T07:02:02.914Z,76950.94
2023-03-12T07:04:30.794Z,76936.66
2023-03-12T07:06:58.585Z,76922.38
2023-03-12T07:09:26.396Z,76910.16
2023-03-12T07:11:54.123Z,76893.81
2023-03-12T07:14:21.936Z,76877.50
2023-03-12T07:16:51.117Z,76869.34
2023-03-12T07:19:19.582Z,76844.88
2023-03-12T07:21:47.440Z,76832.66
2023-03-12T07:24:15.346Z,76812.25
2023-03-12T07:26:43.751Z,76795.94
2023-03-12T07:29:11.541Z,76791.88
2023-03-12T07:31:39.420Z,76779.63
2023-03-12T07:34:08.660Z,76767.41
2023-03-12T07:36:36.630Z,76751.09
2023-03-12T07:39:05.369Z,76738.84
2023-03-12T07:41:33.195Z,76726.63
2023-03-12T07:44:01.001Z,76722.53
2023-03-12T07:46:28.888Z,76722.53
2023-03-12T07:48:56.685Z,76718.47
2023-03-12T07:51:25.855Z,76704.19
2023-03-12T07:53:53.715Z,76694.00
2023-03-12T07:56:21.601Z,76687.88
2023-03-12T07:58:49.643Z,76685.81
2023-03-12T08:01:17.852Z,76665.44
2023-03-12T08:03:45.947Z,76640.97
2023-03-12T08:06:13.936Z,76616.50
2023-03-12T08:08:43.136Z,76608.34
2023-03-12T08:11:11.374Z,76585.91
2023-03-12T08:13:39.113Z,76590.00
2023-03-12T08:16:09.403Z,76585.91
2023-03-12T08:18:37.500Z,76565.53
2023-03-12T08:21:05.703Z,76555.31
2023-03-12T08:23:33.460Z,76534.94
2023-03-12T08:26:03.098Z,76539.00
2023-03-12T08:28:30.947Z,76539.00
2023-03-12T08:31:00.939Z,76534.94
2023-03-12T08:33:28.715Z,76520.66
2023-03-12T08:35:56.597Z,76498.22
2023-03-12T08:38:24.668Z,76473.75
2023-03-12T08:40:57.565Z,76488.03
2023-03-12T08:43:29.305Z,76492.13
2023-03-12T08:45:57.630Z,76469.69
2023-03-12T08:48:25.780Z,76459.50
2023-03-12T08:50:56.485Z,76445.22
2023-03-12T08:53:24.441Z,76410.56
2023-03-12T08:55:55.289Z,76359.59
2023-03-12T08:58:24.887Z,76335.13
2023-03-12T09:00:54.504Z,76339.19
2023-03-12T09:03:23.303Z,76335.13
2023-03-12T09:05:51.897Z,76329.00
2023-03-12T09:08:19.704Z,76308.59
2023-03-12T09:10:50.726Z,76335.13
2023-03-12T09:13:18.484Z,76339.19
2023-03-12T09:15:46.271Z,76355.50
2023-03-12T09:18:15.377Z,76306.56
2023-03-12T09:20:43.537Z,76333.06
2023-03-12T09:23:11.309Z,76333.06
2023-03-12T09:25:39.043Z,76331.03
2023-03-12T09:28:07.100Z,76339.19
2023-03-12T09:30:35.026Z,76322.88
2023-03-12T09:33:02.792Z,76300.47
2023-03-12T09:35:32.442Z,76282.09
2023-03-12T09:38:00.452Z,76278.03
2023-03-12T09:40:31.576Z,76247.44
2023-03-12T09:43:01.317Z,76261.72
2023-03-12T09:45:31.951Z,76257.63
2023-03-12T09:48:02.882Z,76255.59
2023-03-12T09:50:35.532Z,76212.78
2023-03-12T09:53:05.625Z,76225.00
2023-03-12T09:55:38.192Z,76216.84
2023-03-12T09:58:11.677Z,76202.59
2023-03-12T10:00:39.809Z,76184.25
2023-03-12T10:03:24.614Z,76180.16
2023-03-12T10:06:07.727Z,76172.00
2023-03-12T10:08:47.481Z,76161.81
2023-03-12T10:11:26.050Z,76143.47
2023-03-12T10:14:07.280Z,76131.22
2023-03-12T10:16:44.741Z,76114.91
2023-03-12T10:19:29.778Z,76106.75
2023-03-12T10:22:06.217Z,76092.50
2023-03-12T10:24:52.201Z,76098.59
2023-03-12T10:27:23.754Z,76104.72
2023-03-12T10:29:54.539Z,76059.88
2023-03-12T10:32:27.499Z,76023.19
2023-03-12T10:34:58.425Z,75984.44
2023-03-12T10:37:32.310Z,75992.59
2023-03-12T10:40:01.022Z,75992.59
2023-03-12T10:42:31.111Z,75988.50
2023-03-12T10:45:02.275Z,76006.88
2023-03-12T10:47:36.673Z,76006.88
2023-03-12T10:50:15.298Z,76006.88
2023-03-12T10:52:45.502Z,76021.13
2023-03-12T10:55:21.486Z,76008.91
2023-03-12T10:57:50.721Z,76008.91
2023-03-12T11:00:21.977Z,75986.47
2023-03-12T11:02:59.244Z,75984.44
2023-03-12T11:05:30.839Z,75992.59
2023-03-12T11:08:01.899Z,76006.88
2023-03-12T11:10:42.980Z,76004.81
2023-03-12T11:13:27.738Z,76012.97
2023-03-12T11:15:56.938Z,75990.56
2023-03-12T11:18:54.715Z,75992.59
2023-03-12T11:21:22.451Z,75992.59
2023-03-12T11:24:10.977Z,75970.16
2023-03-12T11:26:45.685Z,75951.81
2023-03-12T11:29:24.089Z,75911.03
2023-03-12T11:32:00.316Z,75915.13
2023-03-12T11:34:31.391Z,75898.81
2023-03-12T11:37:07.526Z,75927.34
2023-03-12T11:39:52.603Z,75923.28
2023-03-12T11:42:36.307Z,75923.28
2023-03-12T11:45:15.954Z,75925.31
2023-03-12T11:48:00.353Z,75902.88
2023-03-12T11:50:37.872Z,75902.88
2023-03-12T11:53:16.972Z,75911.03
2023-03-12T11:55:58.552Z,75886.56
2023-03-12T11:58:54.888Z,75872.31
2023-03-12T12:01:30.851Z,75833.56
2023-03-12T12:04:19.553Z,75794.84
2023-03-12T12:06:58.807Z,75756.09
2023-03-12T12:09:33.918Z,75764.25
2023-03-12T12:12:15.446Z,75768.34
2023-03-12T12:14:58.694Z,75788.72
2023-03-12T12:17:40.071Z,75786.69
2023-03-12T12:20:21.620Z,75807.06
2023-03-12T12:23:02.328Z,75796.88
2023-03-12T12:25:42.133Z,75792.81
2023-03-12T12:28:29.661Z,75809.13
2023-03-12T12:31:13.633Z,75833.56
2023-03-12T12:33:56.039Z,75858.03
2023-03-12T12:36:27.889Z,75853.97
2023-03-12T12:39:01.242Z,75862.13
2023-03-12T12:41:33.328Z,75866.19
2023-03-12T12:44:06.341Z,75849.88
2023-03-12T12:46:38.617Z,75823.38
2023-03-12T12:49:13.299Z,75813.19
2023-03-12T12:51:44.673Z,75833.56
2023-03-12T12:54:25.603Z,75866.19
2023-03-12T12:56:58.984Z,75862.13
2023-03-12T12:59:35.463Z,75853.97
2023-03-12T13:02:05.977Z,75837.66
2023-03-12T13:04:37.323Z,75831.53
2023-03-12T13:07:35.025Z,75862.13
2023-03-12T13:10:08.260Z,75862.13
2023-03-12T13:12:44.337Z,75864.16
2023-03-12T13:15:35.334Z,75833.56
2023-03-12T13:18:09.584Z,75835.63
2023-03-12T13:20:45.057Z,75858.03
2023-03-12T13:23:33.849Z,75886.56
2023-03-12T13:26:07.217Z,75904.94
2023-03-12T13:29:11.392Z,75904.94
2023-03-12T13:31:41.237Z,75931.44
2023-03-12T13:34:42.600Z,75955.91
2023-03-12T13:37:22.213Z,75953.84
2023-03-12T13:39:52.067Z,75953.84
2023-03-12T13:42:36.225Z,75968.13
2023-03-12T13:45:23.474Z,76019.09
2023-03-12T13:47:57.543Z,76025.22
2023-03-12T13:50:26.202Z,76051.72
2023-03-12T13:53:04.148Z,76033.38
2023-03-12T13:55:35.386Z,76045.59
2023-03-12T13:58:09.750Z,76049.69
2023-03-12T14:00:42.118Z,76090.44
2023-03-12T14:03:17.299Z,76082.28
2023-03-12T14:05:53.413Z,76078.22
2023-03-12T14:08:58.615Z,76094.53
2023-03-12T14:11:40.687Z,76112.88
2023-03-12T14:14:31.650Z,76119.00
2023-03-12T14:17:02.349Z,76131.22
2023-03-12T14:19:31.958Z,76129.19
2023-03-12T14:22:03.854Z,76112.88
2023-03-12T14:24:35.790Z,76098.59
2023-03-12T14:27:07.482Z,76082.28
2023-03-12T14:29:39.126Z,76066.00
2023-03-12T14:32:15.492Z,76061.91
2023-03-12T14:34:47.413Z,76059.88
2023-03-12T14:37:19.297Z,76033.38
2023-03-12T14:39:50.985Z,76025.22
2023-03-12T14:42:26.212Z,76004.81
2023-03-12T14:45:00.802Z,76012.97
2023-03-12T14:47:29.157Z,76004.81
2023-03-12T14:49:58.625Z,76004.81
2023-03-12T14:52:28.246Z,76004.81
2023-03-12T14:54:58.595Z,76008.91
2023-03-12T14:57:28.379Z,76025.22
2023-03-12T14:59:57.690Z,76037.44
2023-03-12T15:02:27.474Z,76049.69
2023-03-12T15:04:58.518Z,76057.84
2023-03-12T15:07:31.145Z,76070.06
2023-03-12T15:09:59.582Z,76086.38
2023-03-12T15:12:33.053Z,76090.44
2023-03-12T15:15:07.052Z,76076.19
2023-03-12T15:17:35.649Z,76078.22
2023-03-12T15:20:09.213Z,76090.44
2023-03-12T15:22:37.806Z,76104.72
2023-03-12T15:25:22.154Z,76114.91
2023-03-12T15:28:02.681Z,76104.72
2023-03-12T15:30:31.327Z,76112.88
2023-03-12T15:33:07.910Z,76114.91
2023-03-12T15:35:37.114Z,76104.72
2023-03-12T15:38:05.834Z,76112.88
2023-03-12T15:40:33.640Z,76114.91
2023-03-12T15:43:03.599Z,76127.16
2023-03-12T15:45:37.324Z,76139.38
2023-03-12T15:48:18.548Z,76135.31
2023-03-12T15:50:46.577Z,76159.78
2023-03-12T15:53:31.027Z,76165.88
2023-03-12T15:56:05.535Z,76180.16
2023-03-12T15:58:36.520Z,76190.34
2023-03-12T16:01:09.776Z,76204.63
2023-03-12T16:03:38.471Z,76208.69
2023-03-12T16:06:07.070Z,76216.84
2023-03-12T16:08:39.446Z,76208.69
2023-03-12T16:11:15.624Z,76204.63
2023-03-12T16:13:46.114Z,76208.69
2023-03-12T16:16:14.909Z,76216.84
2023-03-12T16:18:43.989Z,76227.06
2023-03-12T16:21:12.370Z,76231.13
2023-03-12T16:23:40.179Z,76229.09
2023-03-12T16:26:08.187Z,76231.13
2023-03-12T16:28:37.366Z,76241.31
2023-03-12T16:31:12.294Z,76245.41
2023-03-12T16:33:40.098Z,76245.41
2023-03-12T16:36:13.865Z,76253.56
2023-03-12T16:38:41.637Z,76251.53
2023-03-12T16:41:12.992Z,76257.63
2023-03-12T16:43:41.546Z,76253.56
2023-03-12T16:46:11.221Z,76263.75
2023-03-12T16:48:39.052Z,76265.78
2023-03-12T16:51:15.722Z,76269.88
2023-03-12T16:53:43.657Z,76276.00
2023-03-12T16:56:17.365Z,76280.06
2023-03-12T16:58:45.801Z,76284.16
2023-03-12T17:01:16.065Z,76273.94
2023-03-12T17:03:46.566Z,76276.00
2023-03-12T17:06:17.563Z,76282.09
2023-03-12T17:08:47.192Z,76282.09
2023-03-12T17:11:17.752Z,76280.06
2023-03-12T17:13:48.461Z,76284.16
2023-03-12T17:16:17.645Z,76290.25
2023-03-12T17:18:45.530Z,76290.25
2023-03-12T17:21:14.237Z,76302.50
2023-03-12T17:23:43.075Z,76306.56
2023-03-12T17:26:11.314Z,76310.66
2023-03-12T17:28:39.122Z,76310.66
2023-03-12T17:31:07.097Z,76310.66
2023-03-12T17:33:38.180Z,76308.59
2023-03-12T17:36:09.290Z,76310.66
2023-03-12T17:38:37.634Z,76318.81
2023-03-12T17:41:16.527Z,76322.88
2023-03-12T17:43:51.459Z,76322.88
2023-03-12T17:46:19.316Z,76320.84
2023-03-12T17:48:48.450Z,76320.84
2023-03-12T17:51:16.862Z,76322.88
2023-03-12T17:53:44.645Z,76320.84
2023-03-12T17:56:12.652Z,76326.97
2023-03-12T17:58:40.829Z,76326.97
2023-03-12T18:01:08.798Z,76329.00
2023-03-12T18:03:36.739Z,76331.03
2023-03-12T18:06:06.409Z,76331.03
2023-03-12T18:08:34.201Z,76324.91
2023-03-12T18:11:03.043Z,76329.00
2023-03-12T18:13:30.931Z,76324.91
2023-03-12T18:16:00.048Z,76331.03
2023-03-12T18:18:28.403Z,76335.13
2023-03-12T18:20:56.347Z,76324.91
2023-03-12T18:23:25.848Z,76331.03
2023-03-12T18:25:53.616Z,76335.13
2023-03-12T18:28:22.454Z,76347.34
2023-03-12T18:30:50.296Z,76331.03
2023-03-12T18:33:18.089Z,76343.28
2023-03-12T18:35:45.982Z,76337.16
2023-03-12T18:38:13.864Z,76339.19
2023-03-12T18:40:42.959Z,76343.28
2023-03-12T18:43:10.778Z,76343.28
2023-03-12T18:45:42.481Z,76347.34
2023-03-12T18:48:10.497Z,76351.44
2023-03-12T18:50:38.777Z,76351.44
2023-03-12T18:53:06.531Z,76353.47
2023-03-12T18:55:34.565Z,76355.50
2023-03-12T18:58:03.867Z,76357.53
2023-03-12T19:00:31.685Z,76363.66
2023-03-12T19:02:59.516Z,76361.63
2023-03-12T19:05:27.378Z,76363.66
2023-03-12T19:07:55.143Z,76359.59
2023-03-12T19:10:22.933Z,76363.66
2023-03-12T19:12:53.340Z,76351.44
2023-03-12T19:15:24.447Z,76353.47
2023-03-12T19:17:53.932Z,76343.28
2023-03-12T19:20:22.330Z,76355.50
2023-03-12T19:22:50.206Z,76377.94
2023-03-12T19:25:18.279Z,76367.75
2023-03-12T19:27:46.116Z,76361.63
2023-03-12T19:30:14.743Z,76371.81
2023-03-12T19:32:44.733Z,76371.81
2023-03-12T19:35:14.701Z,76363.66
2023-03-12T19:37:42.589Z,76379.97
2023-03-12T19:40:13.480Z,76396.28
2023-03-12T19:42:41.335Z,76392.22
2023-03-12T19:45:10.184Z,76394.25
2023-03-12T19:47:37.946Z,76384.06
2023-03-12T19:50:08.125Z,76384.06
2023-03-12T19:52:35.904Z,76388.13
2023-03-12T19:55:05.596Z,76388.13
2023-03-12T19:57:34.046Z,76375.91
2023-03-12T20:00:01.911Z,76373.84
2023-03-12T20:02:29.868Z,76373.84
2023-03-12T20:04:57.779Z,76388.13
2023-03-12T20:07:26.965Z,76400.38
2023-03-12T20:09:54.780Z,76392.22
2023-03-12T20:12:22.609Z,76388.13
2023-03-12T20:14:50.462Z,76379.97
2023-03-12T20:17:18.280Z,76382.00
2023-03-12T20:19:46.127Z,76379.97
2023-03-12T20:22:14.113Z,76371.81
2023-03-12T20:24:43.285Z,76359.59
2023-03-12T20:27:11.225Z,76359.59
2023-03-12T20:29:39.142Z,76351.44
2023-03-12T20:32:06.988Z,76355.50
2023-03-12T20:34:34.829Z,76361.63
2023-03-12T20:37:02.561Z,76363.66
2023-03-12T20:39:30.341Z,76363.66
2023-03-12T20:41:59.479Z,76357.53
2023-03-12T20:44:27.340Z,76365.69
2023-03-12T20:46:55.075Z,76365.69
2023-03-12T20:49:22.874Z,76355.50
2023-03-12T20:51:50.615Z,76371.81
2023-03-12T20:54:18.369Z,76375.91
2023-03-12T20:56:46.204Z,76375.91
2023-03-12T20:59:15.499Z,76379.97
2023-03-12T21:01:43.330Z,76379.97
2023-03-12T21:04:11.322Z,76375.91
2023-03-12T21:06:39.052Z,76379.97
2023-03-12T21:09:07.240Z,76382.00
2023-03-12T21:11:39.731Z,76388.13
2023-03-12T21:14:07.508Z,76384.06
2023-03-12T21:16:37.599Z,76388.13
2023-03-12T21:19:05.373Z,76388.13
2023-03-12T21:21:35.306Z,76390.16
2023-03-12T21:24:04.015Z,76386.09
2023-03-12T21:26:32.038Z,76392.22
2023-03-12T21:28:59.754Z,76392.22
2023-03-12T21:31:27.781Z,76400.38
2023-03-12T21:33:57.787Z,76414.63
2023-03-12T21:36:26.493Z,76412.59
2023-03-12T21:38:54.378Z,76418.72
2023-03-12T21:41:22.499Z,76412.59
2023-03-12T21:43:50.256Z,76420.75
2023-03-12T21:46:19.829Z,76424.84
2023-03-12T21:48:49.029Z,76422.78
2023-03-12T21:51:19.600Z,76428.91
2023-03-12T21:53:47.436Z,76428.91
2023-03-12T21:56:15.321Z,76432.97
2023-03-12T21:58:43.109Z,76428.91
2023-03-12T22:01:13.320Z,76428.91
2023-03-12T22:03:43.071Z,76428.91
2023-03-12T22:06:12.213Z,76424.84
2023-03-12T22:08:41.801Z,76428.91
2023-03-12T22:11:10.501Z,76428.91
2023-03-12T22:13:38.701Z,76432.97
2023-03-12T22:16:08.987Z,76435.03
2023-03-12T22:18:39.688Z,76432.97
2023-03-12T22:21:08.441Z,76437.06
2023-03-12T22:23:37.221Z,76439.09
2023-03-12T22:26:07.781Z,76439.09
2023-03-12T22:28:35.820Z,76445.22
2023-03-12T22:31:05.686Z,76445.22
2023-03-12T22:33:35.676Z,76449.28
2023-03-12T22:36:06.979Z,76461.53
2023-03-12T22:38:36.589Z,76467.66
2023-03-12T22:41:20.446Z,76465.63
2023-03-12T22:43:49.143Z,76469.69
2023-03-12T22:46:18.562Z,76469.69
2023-03-12T22:48:48.049Z,76469.69
2023-03-12T22:51:15.826Z,76473.75
2023-03-12T22:53:43.705Z,76473.75
2023-03-12T22:56:13.554Z,76469.69
2023-03-12T22:58:42.908Z,76465.63
2023-03-12T23:01:12.467Z,76467.66
2023-03-12T23:03:42.363Z,76467.66
2023-03-12T23:06:11.247Z,76471.72
2023-03-12T23:08:39.409Z,76461.53
2023-03-12T23:11:08.462Z,76461.53
2023-03-12T23:13:37.711Z,76461.53
2023-03-12T23:16:09.132Z,76469.69
2023-03-12T23:18:38.227Z,76469.69
2023-03-12T23:21:08.622Z,76469.69
2023-03-12T23:23:39.381Z,76477.84
2023-03-12T23:26:07.339Z,76490.06
2023-03-12T23:28:35.140Z,76492.13
2023-03-12T23:31:04.889Z,76502.31
2023-03-12T23:33:35.632Z,76502.31
2023-03-12T23:36:06.174Z,76508.44
2023-03-12T23:38:37.315Z,76502.31
2023-03-12T23:41:06.852Z,76512.50
2023-03-12T23:43:35.154Z,76512.50
2023-03-12T23:46:04.970Z,76512.50
2023-03-12T23:48:35.316Z,76498.22
2023-03-12T23:51:08.001Z,76494.16
2023-03-12T23:53:36.783Z,76477.84
2023-03-12T23:56:06.897Z,76477.84
2023-03-12T23:58:35.559Z,76467.66
